sensor_id;sensor_type;location;lat;lon;timestamp;P1;durP1;ratioP1;P2;durP2;ratioP2
3991;SDS011;2010;48.194;16.394;2023-01-26T00:00:00;16.63;;;10.93;;
3991;SDS011;2010;48.194;16.394;2023-01-26T00:02:48;22.43;;;12.40;;
3991;SDS011;2010;48.194;16.394;2023-01-26T00:05:22;17.73;;;11.43;;
3991;SDS011;2010;48.194;16.394;2023-01-26T00:07:54;15.23;;;10.67;;
3991;SDS011;2010;48.194;16.394;2023-01-26T00:10:23;15.60;;;10.20;;
3991;SDS011;2010;48.194;16.394;2023-01-26T00:12:55;16.77;;;10.93;;
3991;SDS011;2010;48.194;16.394;2023-01-26T00:15:24;19.17;;;10.60;;
3991;SDS011;2010;48.194;16.394;2023-01-26T00:17:57;16.23;;;10.77;;
3991;SDS011;2010;48.194;16.394;2023-01-26T00:20:30;17.60;;;10.70;;
3991;SDS011;2010;48.194;16.394;2023-01-26T00:23:02;14.20;;;10.27;;
3991;SDS011;2010;48.194;16.394;2023-01-26T00:25:38;17.23;;;9.70;;
3991;SDS011;2010;48.194;16.394;2023-01-26T00:28:16;13.73;;;9.70;;
3991;SDS011;2010;48.194;16.394;2023-01-26T00:30:49;14.67;;;9.67;;
3991;SDS011;2010;48.194;16.394;2023-01-26T00:33:18;13.83;;;9.37;;
3991;SDS011;2010;48.194;16.394;2023-01-26T00:35:54;14.80;;;9.40;;
3991;SDS011;2010;48.194;16.394;2023-01-26T00:38:23;16.90;;;10.27;;
3991;SDS011;2010;48.194;16.394;2023-01-26T00:40:52;15.33;;;9.50;;
3991;SDS011;2010;48.194;16.394;2023-01-26T00:43:22;14.47;;;9.90;;
3991;SDS011;2010;48.194;16.394;2023-01-26T00:45:52;14.80;;;10.23;;
3991;SDS011;2010;48.194;16.394;2023-01-26T00:48:23;16.90;;;10.40;;
3991;SDS011;2010;48.194;16.394;2023-01-26T00:51:03;13.80;;;9.30;;
3991;SDS011;2010;48.194;16.394;2023-01-26T00:53:39;14.90;;;9.50;;
3991;SDS011;2010;48.194;16.394;2023-01-26T00:56:13;11.23;;;9.03;;
3991;SDS011;2010;48.194;16.394;2023-01-26T00:58:45;12.10;;;9.10;;
3991;SDS011;2010;48.194;16.394;2023-01-26T01:01:17;13.73;;;9.50;;
3991;SDS011;2010;48.194;16.394;2023-01-26T01:03:49;15.37;;;10.07;;
3991;SDS011;2010;48.194;16.394;2023-01-26T01:06:20;11.37;;;8.50;;
3991;SDS011;2010;48.194;16.394;2023-01-26T01:08:49;12.70;;;9.00;;
3991;SDS011;2010;48.194;16.394;2023-01-26T01:11:19;11.43;;;9.20;;
3991;SDS011;2010;48.194;16.394;2023-01-26T01:13:51;18.03;;;10.77;;
3991;SDS011;2010;48.194;16.394;2023-01-26T01:16:25;16.47;;;10.90;;
3991;SDS011;2010;48.194;16.394;2023-01-26T01:18:56;17.03;;;10.60;;
3991;SDS011;2010;48.194;16.394;2023-01-26T01:21:50;17.00;;;10.70;;
3991;SDS011;2010;48.194;16.394;2023-01-26T01:24:20;14.00;;;9.57;;
3991;SDS011;2010;48.194;16.394;2023-01-26T01:26:50;16.10;;;10.77;;
3991;SDS011;2010;48.194;16.394;2023-01-26T01:29:20;13.03;;;9.40;;
3991;SDS011;2010;48.194;16.394;2023-01-26T01:31:52;16.93;;;10.40;;
3991;SDS011;2010;48.194;16.394;2023-01-26T01:34:23;15.73;;;10.17;;
3991;SDS011;2010;48.194;16.394;2023-01-26T01:36:58;13.30;;;9.17;;
3991;SDS011;2010;48.194;16.394;2023-01-26T01:39:26;15.70;;;9.87;;
3991;SDS011;2010;48.194;16.394;2023-01-26T01:41:59;12.03;;;8.67;;
3991;SDS011;2010;48.194;16.394;2023-01-26T01:44:33;14.67;;;9.13;;
3991;SDS011;2010;48.194;16.394;2023-01-26T01:47:12;12.30;;;9.37;;
3991;SDS011;2010;48.194;16.394;2023-01-26T01:49:50;14.70;;;9.07;;
3991;SDS011;2010;48.194;16.394;2023-01-26T01:52:29;12.83;;;8.97;;
3991;SDS011;2010;48.194;16.394;2023-01-26T01:54:59;11.00;;;8.07;;
3991;SDS011;2010;48.194;16.394;2023-01-26T01:57:35;12.97;;;9.37;;
3991;SDS011;2010;48.194;16.394;2023-01-26T02:00:15;14.03;;;9.10;;
3991;SDS011;2010;48.194;16.394;2023-01-26T02:02:57;13.37;;;8.83;;
3991;SDS011;2010;48.194;16.394;2023-01-26T02:05:54;12.10;;;9.90;;
3991;SDS011;2010;48.194;16.394;2023-01-26T02:08:30;12.80;;;8.80;;
3991;SDS011;2010;48.194;16.394;2023-01-26T02:11:11;12.93;;;9.50;;
3991;SDS011;2010;48.194;16.394;2023-01-26T02:13:48;14.13;;;9.90;;
3991;SDS011;2010;48.194;16.394;2023-01-26T02:16:18;14.33;;;9.23;;
3991;SDS011;2010;48.194;16.394;2023-01-26T02:18:48;12.07;;;8.57;;
3991;SDS011;2010;48.194;16.394;2023-01-26T02:21:18;14.43;;;10.00;;
3991;SDS011;2010;48.194;16.394;2023-01-26T02:23:54;16.07;;;10.97;;
3991;SDS011;2010;48.194;16.394;2023-01-26T02:26:32;14.83;;;10.73;;
3991;SDS011;2010;48.194;16.394;2023-01-26T02:29:03;16.53;;;11.80;;
3991;SDS011;2010;48.194;16.394;2023-01-26T02:31:41;16.50;;;10.87;;
3991;SDS011;2010;48.194;16.394;2023-01-26T02:34:14;13.77;;;9.60;;
3991;SDS011;2010;48.194;16.394;2023-01-26T02:36:55;14.83;;;11.00;;
3991;SDS011;2010;48.194;16.394;2023-01-26T02:42:14;17.97;;;10.50;;
3991;SDS011;2010;48.194;16.394;2023-01-26T02:45:06;14.70;;;10.83;;
3991;SDS011;2010;48.194;16.394;2023-01-26T02:47:35;15.53;;;10.90;;
3991;SDS011;2010;48.194;16.394;2023-01-26T02:50:08;16.40;;;11.53;;
3991;SDS011;2010;48.194;16.394;2023-01-26T02:52:43;14.47;;;10.60;;
3991;SDS011;2010;48.194;16.394;2023-01-26T02:55:34;15.57;;;11.10;;
3991;SDS011;2010;48.194;16.394;2023-01-26T02:58:10;16.60;;;11.63;;
3991;SDS011;2010;48.194;16.394;2023-01-26T03:00:47;16.93;;;11.27;;
3991;SDS011;2010;48.194;16.394;2023-01-26T03:03:17;16.40;;;11.20;;
3991;SDS011;2010;48.194;16.394;2023-01-26T03:05:49;14.70;;;11.03;;
3991;SDS011;2010;48.194;16.394;2023-01-26T03:08:21;17.27;;;11.17;;
3991;SDS011;2010;48.194;16.394;2023-01-26T03:10:53;17.20;;;11.50;;
3991;SDS011;2010;48.194;16.394;2023-01-26T03:13:35;17.80;;;12.70;;
3991;SDS011;2010;48.194;16.394;2023-01-26T03:16:05;17.17;;;11.90;;
3991;SDS011;2010;48.194;16.394;2023-01-26T03:18:37;18.33;;;12.60;;
3991;SDS011;2010;48.194;16.394;2023-01-26T03:21:32;17.33;;;10.97;;
3991;SDS011;2010;48.194;16.394;2023-01-26T03:24:23;17.43;;;11.10;;
3991;SDS011;2010;48.194;16.394;2023-01-26T03:27:14;16.80;;;12.03;;
3991;SDS011;2010;48.194;16.394;2023-01-26T03:30:17;17.40;;;11.37;;
3991;SDS011;2010;48.194;16.394;2023-01-26T03:32:52;20.67;;;12.23;;
3991;SDS011;2010;48.194;16.394;2023-01-26T03:35:30;17.57;;;11.63;;
3991;SDS011;2010;48.194;16.394;2023-01-26T03:38:01;19.53;;;12.20;;
3991;SDS011;2010;48.194;16.394;2023-01-26T03:40:45;18.83;;;12.33;;
3991;SDS011;2010;48.194;16.394;2023-01-26T03:43:34;17.03;;;12.80;;
3991;SDS011;2010;48.194;16.394;2023-01-26T03:46:25;19.80;;;12.53;;
3991;SDS011;2010;48.194;16.394;2023-01-26T03:49:13;18.53;;;12.33;;
3991;SDS011;2010;48.194;16.394;2023-01-26T03:52:04;18.60;;;13.10;;
3991;SDS011;2010;48.194;16.394;2023-01-26T03:54:50;18.90;;;12.30;;
3991;SDS011;2010;48.194;16.394;2023-01-26T03:57:42;19.90;;;12.17;;
3991;SDS011;2010;48.194;16.394;2023-01-26T04:00:12;20.23;;;13.90;;
3991;SDS011;2010;48.194;16.394;2023-01-26T04:02:53;20.67;;;13.27;;
3991;SDS011;2010;48.194;16.394;2023-01-26T04:05:41;23.13;;;14.00;;
3991;SDS011;2010;48.194;16.394;2023-01-26T04:08:48;17.97;;;12.13;;
3991;SDS011;2010;48.194;16.394;2023-01-26T04:11:23;20.20;;;12.70;;
3991;SDS011;2010;48.194;16.394;2023-01-26T04:13:53;20.03;;;12.70;;
3991;SDS011;2010;48.194;16.394;2023-01-26T04:16:41;18.23;;;12.53;;
3991;SDS011;2010;48.194;16.394;2023-01-26T04:19:31;20.67;;;14.23;;
3991;SDS011;2010;48.194;16.394;2023-01-26T04:22:22;22.07;;;14.07;;
3991;SDS011;2010;48.194;16.394;2023-01-26T04:25:03;20.67;;;13.03;;
3991;SDS011;2010;48.194;16.394;2023-01-26T04:27:34;20.63;;;13.67;;
3991;SDS011;2010;48.194;16.394;2023-01-26T04:30:15;20.37;;;13.13;;
3991;SDS011;2010;48.194;16.394;2023-01-26T04:32:44;29.47;;;15.90;;
3991;SDS011;2010;48.194;16.394;2023-01-26T04:35:17;20.20;;;12.87;;
3991;SDS011;2010;48.194;16.394;2023-01-26T04:37:47;25.03;;;14.80;;
3991;SDS011;2010;48.194;16.394;2023-01-26T04:40:16;24.73;;;15.40;;
3991;SDS011;2010;48.194;16.394;2023-01-26T04:42:54;22.93;;;14.30;;
3991;SDS011;2010;48.194;16.394;2023-01-26T04:45:33;21.70;;;14.23;;
3991;SDS011;2010;48.194;16.394;2023-01-26T04:48:09;25.20;;;14.30;;
3991;SDS011;2010;48.194;16.394;2023-01-26T04:50:44;21.30;;;13.67;;
3991;SDS011;2010;48.194;16.394;2023-01-26T04:53:26;25.33;;;14.67;;
3991;SDS011;2010;48.194;16.394;2023-01-26T04:55:58;21.67;;;14.77;;
3991;SDS011;2010;48.194;16.394;2023-01-26T04:58:28;24.10;;;14.97;;
3991;SDS011;2010;48.194;16.394;2023-01-26T05:00:59;26.10;;;15.47;;
3991;SDS011;2010;48.194;16.394;2023-01-26T05:03:28;28.63;;;16.03;;
3991;SDS011;2010;48.194;16.394;2023-01-26T05:06:02;25.13;;;15.07;;
3991;SDS011;2010;48.194;16.394;2023-01-26T05:08:41;28.83;;;15.60;;
3991;SDS011;2010;48.194;16.394;2023-01-26T05:11:15;26.70;;;15.50;;
3991;SDS011;2010;48.194;16.394;2023-01-26T05:14:11;25.47;;;15.27;;
3991;SDS011;2010;48.194;16.394;2023-01-26T05:17:04;25.10;;;14.77;;
3991;SDS011;2010;48.194;16.394;2023-01-26T05:19:53;24.53;;;14.37;;
3991;SDS011;2010;48.194;16.394;2023-01-26T05:22:44;25.60;;;14.27;;
3991;SDS011;2010;48.194;16.394;2023-01-26T05:25:32;24.53;;;14.90;;
3991;SDS011;2010;48.194;16.394;2023-01-26T05:28:09;24.57;;;14.40;;
3991;SDS011;2010;48.194;16.394;2023-01-26T05:30:40;25.37;;;14.67;;
3991;SDS011;2010;48.194;16.394;2023-01-26T05:33:10;24.83;;;14.80;;
3991;SDS011;2010;48.194;16.394;2023-01-26T05:35:46;25.27;;;14.33;;
3991;SDS011;2010;48.194;16.394;2023-01-26T05:38:21;26.97;;;15.90;;
3991;SDS011;2010;48.194;16.394;2023-01-26T05:40:51;29.40;;;15.93;;
3991;SDS011;2010;48.194;16.394;2023-01-26T05:43:24;27.20;;;15.23;;
3991;SDS011;2010;48.194;16.394;2023-01-26T05:46:30;30.33;;;17.03;;
3991;SDS011;2010;48.194;16.394;2023-01-26T05:49:01;31.03;;;16.90;;
3991;SDS011;2010;48.194;16.394;2023-01-26T05:51:33;31.80;;;17.97;;
3991;SDS011;2010;48.194;16.394;2023-01-26T05:54:08;25.90;;;16.37;;
3991;SDS011;2010;48.194;16.394;2023-01-26T05:56:40;27.40;;;16.00;;
3991;SDS011;2010;48.194;16.394;2023-01-26T05:59:09;29.27;;;16.30;;
3991;SDS011;2010;48.194;16.394;2023-01-26T06:01:39;27.73;;;16.30;;
3991;SDS011;2010;48.194;16.394;2023-01-26T06:04:08;29.93;;;15.30;;
3991;SDS011;2010;48.194;16.394;2023-01-26T06:06:51;25.70;;;15.30;;
3991;SDS011;2010;48.194;16.394;2023-01-26T06:09:30;27.70;;;17.07;;
3991;SDS011;2010;48.194;16.394;2023-01-26T06:12:24;25.83;;;14.40;;
3991;SDS011;2010;48.194;16.394;2023-01-26T06:15:14;30.23;;;16.30;;
3991;SDS011;2010;48.194;16.394;2023-01-26T06:17:49;31.77;;;16.73;;
3991;SDS011;2010;48.194;16.394;2023-01-26T06:20:23;30.80;;;17.00;;
3991;SDS011;2010;48.194;16.394;2023-01-26T06:22:59;26.90;;;17.70;;
3991;SDS011;2010;48.194;16.394;2023-01-26T06:25:40;29.70;;;15.50;;
3991;SDS011;2010;48.194;16.394;2023-01-26T06:28:09;26.03;;;15.87;;
3991;SDS011;2010;48.194;16.394;2023-01-26T06:30:41;30.50;;;16.87;;
3991;SDS011;2010;48.194;16.394;2023-01-26T06:33:14;33.97;;;17.93;;
3991;SDS011;2010;48.194;16.394;2023-01-26T06:35:46;33.40;;;18.03;;
3991;SDS011;2010;48.194;16.394;2023-01-26T06:38:16;28.63;;;16.20;;
3991;SDS011;2010;48.194;16.394;2023-01-26T06:40:50;31.20;;;17.87;;
3991;SDS011;2010;48.194;16.394;2023-01-26T06:43:31;28.53;;;15.53;;
3991;SDS011;2010;48.194;16.394;2023-01-26T06:46:01;32.50;;;18.10;;
3991;SDS011;2010;48.194;16.394;2023-01-26T06:48:43;31.30;;;17.97;;
3991;SDS011;2010;48.194;16.394;2023-01-26T06:54:11;31.90;;;17.40;;
3991;SDS011;2010;48.194;16.394;2023-01-26T06:57:09;31.50;;;18.13;;
3991;SDS011;2010;48.194;16.394;2023-01-26T07:00:01;32.50;;;18.77;;
3991;SDS011;2010;48.194;16.394;2023-01-26T07:02:35;34.53;;;18.80;;
3991;SDS011;2010;48.194;16.394;2023-01-26T07:05:07;33.43;;;18.87;;
3991;SDS011;2010;48.194;16.394;2023-01-26T07:07:46;35.03;;;18.57;;
3991;SDS011;2010;48.194;16.394;2023-01-26T07:10:18;30.87;;;18.47;;
3991;SDS011;2010;48.194;16.394;2023-01-26T07:12:55;32.87;;;17.50;;
3991;SDS011;2010;48.194;16.394;2023-01-26T07:15:29;34.90;;;19.23;;
3991;SDS011;2010;48.194;16.394;2023-01-26T07:18:00;32.60;;;18.37;;
3991;SDS011;2010;48.194;16.394;2023-01-26T07:20:30;32.70;;;17.70;;
3991;SDS011;2010;48.194;16.394;2023-01-26T07:23:00;32.63;;;18.27;;
3991;SDS011;2010;48.194;16.394;2023-01-26T07:25:32;43.53;;;26.63;;
3991;SDS011;2010;48.194;16.394;2023-01-26T07:28:16;37.97;;;21.23;;
3991;SDS011;2010;48.194;16.394;2023-01-26T07:30:47;35.30;;;18.80;;
3991;SDS011;2010;48.194;16.394;2023-01-26T07:33:19;40.23;;;19.93;;
3991;SDS011;2010;48.194;16.394;2023-01-26T07:35:51;44.13;;;20.00;;
3991;SDS011;2010;48.194;16.394;2023-01-26T07:38:21;32.93;;;19.40;;
3991;SDS011;2010;48.194;16.394;2023-01-26T07:41:03;41.60;;;20.10;;
3991;SDS011;2010;48.194;16.394;2023-01-26T07:43:40;39.57;;;19.47;;
3991;SDS011;2010;48.194;16.394;2023-01-26T07:46:12;42.80;;;21.10;;
3991;SDS011;2010;48.194;16.394;2023-01-26T07:48:44;45.87;;;21.13;;
3991;SDS011;2010;48.194;16.394;2023-01-26T07:51:12;45.23;;;22.27;;
3991;SDS011;2010;48.194;16.394;2023-01-26T07:53:42;41.00;;;20.30;;
3991;SDS011;2010;48.194;16.394;2023-01-26T07:56:17;41.53;;;20.20;;
3991;SDS011;2010;48.194;16.394;2023-01-26T07:59:05;39.13;;;20.03;;
3991;SDS011;2010;48.194;16.394;2023-01-26T08:01:34;43.80;;;21.70;;
3991;SDS011;2010;48.194;16.394;2023-01-26T08:04:03;43.33;;;19.60;;
3991;SDS011;2010;48.194;16.394;2023-01-26T08:06:35;51.43;;;21.50;;
3991;SDS011;2010;48.194;16.394;2023-01-26T08:09:05;46.87;;;20.83;;
3991;SDS011;2010;48.194;16.394;2023-01-26T08:11:34;49.97;;;22.00;;
3991;SDS011;2010;48.194;16.394;2023-01-26T08:14:22;50.77;;;22.70;;
3991;SDS011;2010;48.194;16.394;2023-01-26T08:17:08;46.77;;;21.83;;
3991;SDS011;2010;48.194;16.394;2023-01-26T08:19:50;54.30;;;21.53;;
3991;SDS011;2010;48.194;16.394;2023-01-26T08:22:19;49.00;;;21.27;;
3991;SDS011;2010;48.194;16.394;2023-01-26T08:24:55;46.57;;;21.67;;
3991;SDS011;2010;48.194;16.394;2023-01-26T08:27:26;52.43;;;20.73;;
3991;SDS011;2010;48.194;16.394;2023-01-26T08:29:57;49.50;;;20.53;;
3991;SDS011;2010;48.194;16.394;2023-01-26T08:32:38;42.47;;;20.63;;
3991;SDS011;2010;48.194;16.394;2023-01-26T08:35:09;53.50;;;21.10;;
3991;SDS011;2010;48.194;16.394;2023-01-26T08:37:47;48.47;;;22.13;;
3991;SDS011;2010;48.194;16.394;2023-01-26T08:40:17;36.50;;;19.23;;
3991;SDS011;2010;48.194;16.394;2023-01-26T08:42:48;44.13;;;19.70;;
3991;SDS011;2010;48.194;16.394;2023-01-26T08:45:19;43.33;;;20.53;;
3991;SDS011;2010;48.194;16.394;2023-01-26T08:47:48;43.60;;;20.93;;
3991;SDS011;2010;48.194;16.394;2023-01-26T08:50:21;45.53;;;21.37;;
3991;SDS011;2010;48.194;16.394;2023-01-26T08:52:54;42.73;;;20.37;;
3991;SDS011;2010;48.194;16.394;2023-01-26T08:55:33;45.23;;;20.50;;
3991;SDS011;2010;48.194;16.394;2023-01-26T08:58:11;39.87;;;20.30;;
3991;SDS011;2010;48.194;16.394;2023-01-26T09:00:53;43.33;;;21.33;;
3991;SDS011;2010;48.194;16.394;2023-01-26T09:03:26;37.47;;;19.73;;
3991;SDS011;2010;48.194;16.394;2023-01-26T09:05:57;40.07;;;19.47;;
3991;SDS011;2010;48.194;16.394;2023-01-26T09:08:31;45.80;;;21.73;;
3991;SDS011;2010;48.194;16.394;2023-01-26T09:11:00;42.47;;;20.63;;
3991;SDS011;2010;48.194;16.394;2023-01-26T09:13:43;43.50;;;21.10;;
3991;SDS011;2010;48.194;16.394;2023-01-26T09:16:18;41.23;;;20.47;;
3991;SDS011;2010;48.194;16.394;2023-01-26T09:18:48;47.03;;;20.57;;
3991;SDS011;2010;48.194;16.394;2023-01-26T09:21:24;44.47;;;20.03;;
3991;SDS011;2010;48.194;16.394;2023-01-26T09:23:56;45.33;;;22.70;;
3991;SDS011;2010;48.194;16.394;2023-01-26T09:26:27;47.63;;;22.93;;
3991;SDS011;2010;48.194;16.394;2023-01-26T09:29:00;45.17;;;21.10;;
3991;SDS011;2010;48.194;16.394;2023-01-26T09:31:33;45.20;;;22.57;;
3991;SDS011;2010;48.194;16.394;2023-01-26T09:34:03;49.67;;;22.73;;
3991;SDS011;2010;48.194;16.394;2023-01-26T09:36:37;44.37;;;21.53;;
3991;SDS011;2010;48.194;16.394;2023-01-26T09:39:08;44.97;;;21.83;;
3991;SDS011;2010;48.194;16.394;2023-01-26T09:41:42;45.47;;;22.77;;
3991;SDS011;2010;48.194;16.394;2023-01-26T09:44:19;46.83;;;22.00;;
3991;SDS011;2010;48.194;16.394;2023-01-26T09:46:57;48.33;;;21.50;;
3991;SDS011;2010;48.194;16.394;2023-01-26T09:49:43;47.43;;;22.30;;
3991;SDS011;2010;48.194;16.394;2023-01-26T09:52:19;42.83;;;21.23;;
3991;SDS011;2010;48.194;16.394;2023-01-26T09:54:53;40.17;;;20.93;;
3991;SDS011;2010;48.194;16.394;2023-01-26T09:57:28;46.07;;;21.30;;
3991;SDS011;2010;48.194;16.394;2023-01-26T10:00:02;41.33;;;20.70;;
3991;SDS011;2010;48.194;16.394;2023-01-26T10:02:50;44.07;;;19.80;;
3991;SDS011;2010;48.194;16.394;2023-01-26T10:05:29;49.93;;;22.30;;
3991;SDS011;2010;48.194;16.394;2023-01-26T10:08:08;40.90;;;20.37;;
3991;SDS011;2010;48.194;16.394;2023-01-26T10:10:43;46.63;;;21.33;;
3991;SDS011;2010;48.194;16.394;2023-01-26T10:13:17;38.00;;;18.73;;
3991;SDS011;2010;48.194;16.394;2023-01-26T10:15:49;42.47;;;20.60;;
3991;SDS011;2010;48.194;16.394;2023-01-26T10:18:24;49.10;;;21.93;;
3991;SDS011;2010;48.194;16.394;2023-01-26T10:20:57;41.63;;;20.90;;
3991;SDS011;2010;48.194;16.394;2023-01-26T10:23:29;44.20;;;19.80;;
3991;SDS011;2010;48.194;16.394;2023-01-26T10:26:05;40.97;;;20.90;;
3991;SDS011;2010;48.194;16.394;2023-01-26T10:28:44;46.27;;;20.37;;
3991;SDS011;2010;48.194;16.394;2023-01-26T10:31:14;47.23;;;21.30;;
3991;SDS011;2010;48.194;16.394;2023-01-26T10:33:52;47.03;;;23.70;;
3991;SDS011;2010;48.194;16.394;2023-01-26T10:36:27;48.70;;;22.50;;
3991;SDS011;2010;48.194;16.394;2023-01-26T10:39:04;48.03;;;21.27;;
3991;SDS011;2010;48.194;16.394;2023-01-26T10:41:36;54.23;;;23.00;;
3991;SDS011;2010;48.194;16.394;2023-01-26T10:44:20;52.53;;;22.70;;
3991;SDS011;2010;48.194;16.394;2023-01-26T10:47:14;44.93;;;21.70;;
3991;SDS011;2010;48.194;16.394;2023-01-26T10:49:45;43.93;;;22.37;;
3991;SDS011;2010;48.194;16.394;2023-01-26T10:52:18;47.40;;;20.20;;
3991;SDS011;2010;48.194;16.394;2023-01-26T10:54:49;45.13;;;20.90;;
3991;SDS011;2010;48.194;16.394;2023-01-26T10:57:38;47.57;;;22.97;;
3991;SDS011;2010;48.194;16.394;2023-01-26T11:00:18;42.53;;;20.90;;
3991;SDS011;2010;48.194;16.394;2023-01-26T11:02:53;41.93;;;20.60;;
3991;SDS011;2010;48.194;16.394;2023-01-26T11:05:45;48.20;;;20.97;;
3991;SDS011;2010;48.194;16.394;2023-01-26T11:08:30;48.90;;;23.13;;
3991;SDS011;2010;48.194;16.394;2023-01-26T11:11:02;46.97;;;21.67;;
3991;SDS011;2010;48.194;16.394;2023-01-26T11:13:36;48.13;;;21.73;;
3991;SDS011;2010;48.194;16.394;2023-01-26T11:16:11;45.63;;;21.73;;
3991;SDS011;2010;48.194;16.394;2023-01-26T11:18:45;45.60;;;22.63;;
3991;SDS011;2010;48.194;16.394;2023-01-26T11:21:26;50.77;;;22.57;;
3991;SDS011;2010;48.194;16.394;2023-01-26T11:23:59;48.03;;;22.90;;
3991;SDS011;2010;48.194;16.394;2023-01-26T11:32:45;47.83;;;22.97;;
3991;SDS011;2010;48.194;16.394;2023-01-26T11:35:22;50.77;;;24.67;;
3991;SDS011;2010;48.194;16.394;2023-01-26T11:38:15;50.47;;;24.13;;
3991;SDS011;2010;48.194;16.394;2023-01-26T11:40:54;52.27;;;23.73;;
3991;SDS011;2010;48.194;16.394;2023-01-26T11:43:41;52.20;;;24.00;;
3991;SDS011;2010;48.194;16.394;2023-01-26T11:46:37;54.90;;;24.77;;
3991;SDS011;2010;48.194;16.394;2023-01-26T11:49:38;51.50;;;23.57;;
3991;SDS011;2010;48.194;16.394;2023-01-26T11:52:21;58.97;;;23.67;;
3991;SDS011;2010;48.194;16.394;2023-01-26T11:55:12;57.87;;;25.63;;
3991;SDS011;2010;48.194;16.394;2023-01-26T11:57:56;54.10;;;24.50;;
3991;SDS011;2010;48.194;16.394;2023-01-26T12:00:36;50.77;;;24.37;;
3991;SDS011;2010;48.194;16.394;2023-01-26T12:03:14;51.40;;;22.60;;
3991;SDS011;2010;48.194;16.394;2023-01-26T12:05:49;56.90;;;24.33;;
3991;SDS011;2010;48.194;16.394;2023-01-26T12:08:22;53.00;;;23.80;;
3991;SDS011;2010;48.194;16.394;2023-01-26T12:11:18;52.20;;;24.43;;
3991;SDS011;2010;48.194;16.394;2023-01-26T12:14:04;57.17;;;25.10;;
3991;SDS011;2010;48.194;16.394;2023-01-26T12:16:45;52.73;;;24.03;;
3991;SDS011;2010;48.194;16.394;2023-01-26T12:19:46;53.37;;;24.07;;
3991;SDS011;2010;48.194;16.394;2023-01-26T12:22:23;52.30;;;23.57;;
3991;SDS011;2010;48.194;16.394;2023-01-26T12:24:57;49.57;;;23.93;;
3991;SDS011;2010;48.194;16.394;2023-01-26T12:27:57;51.10;;;24.47;;
3991;SDS011;2010;48.194;16.394;2023-01-26T12:30:46;50.50;;;24.03;;
3991;SDS011;2010;48.194;16.394;2023-01-26T12:33:22;47.37;;;22.63;;
3991;SDS011;2010;48.194;16.394;2023-01-26T12:39:02;48.80;;;23.97;;
3991;SDS011;2010;48.194;16.394;2023-01-26T12:41:37;48.40;;;22.83;;
3991;SDS011;2010;48.194;16.394;2023-01-26T12:44:41;51.90;;;25.03;;
3991;SDS011;2010;48.194;16.394;2023-01-26T12:47:13;52.67;;;23.00;;
3991;SDS011;2010;48.194;16.394;2023-01-26T12:49:48;59.93;;;26.30;;
3991;SDS011;2010;48.194;16.394;2023-01-26T12:52:22;50.30;;;24.63;;
3991;SDS011;2010;48.194;16.394;2023-01-26T12:55:00;57.30;;;26.73;;
3991;SDS011;2010;48.194;16.394;2023-01-26T12:57:38;52.47;;;24.37;;
3991;SDS011;2010;48.194;16.394;2023-01-26T13:00:23;61.40;;;25.87;;
3991;SDS011;2010;48.194;16.394;2023-01-26T13:03:04;53.07;;;24.70;;
3991;SDS011;2010;48.194;16.394;2023-01-26T13:05:53;55.67;;;26.50;;
3991;SDS011;2010;48.194;16.394;2023-01-26T13:14:31;53.30;;;25.43;;
3991;SDS011;2010;48.194;16.394;2023-01-26T13:26:23;53.23;;;24.83;;
3991;SDS011;2010;48.194;16.394;2023-01-26T13:35:18;51.30;;;25.87;;
3991;SDS011;2010;48.194;16.394;2023-01-26T13:38:02;48.10;;;23.87;;
3991;SDS011;2010;48.194;16.394;2023-01-26T13:40:40;49.57;;;25.17;;
3991;SDS011;2010;48.194;16.394;2023-01-26T13:43:18;49.87;;;25.07;;
3991;SDS011;2010;48.194;16.394;2023-01-26T13:46:02;50.87;;;25.10;;
3991;SDS011;2010;48.194;16.394;2023-01-26T13:48:46;47.03;;;25.17;;
3991;SDS011;2010;48.194;16.394;2023-01-26T13:51:31;54.33;;;26.60;;
3991;SDS011;2010;48.194;16.394;2023-01-26T13:54:09;47.93;;;24.40;;
3991;SDS011;2010;48.194;16.394;2023-01-26T13:56:58;60.90;;;26.93;;
3991;SDS011;2010;48.194;16.394;2023-01-26T13:59:29;48.43;;;24.40;;
3991;SDS011;2010;48.194;16.394;2023-01-26T14:01:58;44.37;;;22.80;;
3991;SDS011;2010;48.194;16.394;2023-01-26T14:04:37;48.33;;;24.90;;
3991;SDS011;2010;48.194;16.394;2023-01-26T14:07:19;52.00;;;25.90;;
3991;SDS011;2010;48.194;16.394;2023-01-26T14:10:01;45.73;;;24.47;;
3991;SDS011;2010;48.194;16.394;2023-01-26T14:12:30;50.87;;;24.53;;
3991;SDS011;2010;48.194;16.394;2023-01-26T14:15:06;47.47;;;24.13;;
3991;SDS011;2010;48.194;16.394;2023-01-26T14:17:51;48.40;;;24.20;;
3991;SDS011;2010;48.194;16.394;2023-01-26T14:20:25;42.47;;;22.73;;
3991;SDS011;2010;48.194;16.394;2023-01-26T14:23:07;52.00;;;25.90;;
3991;SDS011;2010;48.194;16.394;2023-01-26T14:25:55;50.53;;;24.07;;
3991;SDS011;2010;48.194;16.394;2023-01-26T14:28:29;52.40;;;25.83;;
3991;SDS011;2010;48.194;16.394;2023-01-26T14:31:11;49.60;;;24.37;;
3991;SDS011;2010;48.194;16.394;2023-01-26T14:33:54;52.00;;;24.43;;
3991;SDS011;2010;48.194;16.394;2023-01-26T14:36:27;52.13;;;24.20;;
3991;SDS011;2010;48.194;16.394;2023-01-26T14:39:10;49.27;;;25.57;;
3991;SDS011;2010;48.194;16.394;2023-01-26T14:41:50;49.93;;;25.07;;
3991;SDS011;2010;48.194;16.394;2023-01-26T14:44:20;46.83;;;23.77;;
3991;SDS011;2010;48.194;16.394;2023-01-26T14:46:53;53.10;;;24.37;;
3991;SDS011;2010;48.194;16.394;2023-01-26T14:49:28;47.87;;;24.10;;
3991;SDS011;2010;48.194;16.394;2023-01-26T14:52:16;54.97;;;23.80;;
3991;SDS011;2010;48.194;16.394;2023-01-26T14:54:55;52.53;;;24.90;;
3991;SDS011;2010;48.194;16.394;2023-01-26T14:57:30;52.97;;;25.30;;
3991;SDS011;2010;48.194;16.394;2023-01-26T14:59:59;51.67;;;24.77;;
3991;SDS011;2010;48.194;16.394;2023-01-26T15:02:38;56.30;;;29.20;;
3991;SDS011;2010;48.194;16.394;2023-01-26T15:05:11;55.27;;;24.43;;
3991;SDS011;2010;48.194;16.394;2023-01-26T15:07:54;54.43;;;24.70;;
3991;SDS011;2010;48.194;16.394;2023-01-26T15:10:26;57.77;;;24.50;;
3991;SDS011;2010;48.194;16.394;2023-01-26T15:16:01;56.90;;;24.83;;
3991;SDS011;2010;48.194;16.394;2023-01-26T15:18:39;50.53;;;24.20;;
3991;SDS011;2010;48.194;16.394;2023-01-26T15:21:13;68.27;;;26.97;;
3991;SDS011;2010;48.194;16.394;2023-01-26T15:23:51;51.93;;;24.43;;
3991;SDS011;2010;48.194;16.394;2023-01-26T15:26:28;56.23;;;25.70;;
3991;SDS011;2010;48.194;16.394;2023-01-26T15:29:05;49.13;;;24.40;;
3991;SDS011;2010;48.194;16.394;2023-01-26T15:31:50;52.40;;;25.67;;
3991;SDS011;2010;48.194;16.394;2023-01-26T15:34:28;54.47;;;24.40;;
3991;SDS011;2010;48.194;16.394;2023-01-26T15:37:01;47.53;;;21.60;;
3991;SDS011;2010;48.194;16.394;2023-01-26T15:39:36;53.37;;;23.60;;
3991;SDS011;2010;48.194;16.394;2023-01-26T15:42:10;51.40;;;21.57;;
3991;SDS011;2010;48.194;16.394;2023-01-26T15:44:53;44.40;;;21.57;;
3991;SDS011;2010;48.194;16.394;2023-01-26T15:47:23;47.53;;;21.57;;
3991;SDS011;2010;48.194;16.394;2023-01-26T15:49:55;45.87;;;21.00;;
3991;SDS011;2010;48.194;16.394;2023-01-26T15:52:27;46.57;;;22.00;;
3991;SDS011;2010;48.194;16.394;2023-01-26T15:55:07;47.57;;;21.27;;
3991;SDS011;2010;48.194;16.394;2023-01-26T15:57:46;45.47;;;21.50;;
3991;SDS011;2010;48.194;16.394;2023-01-26T16:00:24;47.30;;;21.27;;
3991;SDS011;2010;48.194;16.394;2023-01-26T16:02:54;42.97;;;20.97;;
3991;SDS011;2010;48.194;16.394;2023-01-26T16:05:29;43.53;;;20.80;;
3991;SDS011;2010;48.194;16.394;2023-01-26T16:08:02;38.73;;;20.10;;
3991;SDS011;2010;48.194;16.394;2023-01-26T16:10:36;47.13;;;21.13;;
3991;SDS011;2010;48.194;16.394;2023-01-26T16:13:07;38.63;;;19.33;;